CW3794 Weather Reports


Display with metric or nautical units.
time (UTC)temp
F
wind
direction
speed
MPH
gust
MPH
rain 1hr
in
rain 24hr
in
rain mn
in
humidity
%
barometer
mb
20191122014905 49 15 0.0 0.0 0.00 0.34 0.27 91 1018.3
20191122014404 49 15 0.0 0.0 0.00 0.34 0.27 91 1018.2
20191122013904 49 15 0.0 0.0 0.00 0.34 0.27 91 1018.2
20191122013404 49 16 0.0 0.0 0.00 0.34 0.27 90 1018.1
20191122012905 49 16 0.0 0.0 0.00 0.34 0.27 90 1018.1
20191122012404 49 15 0.0 0.0 0.00 0.34 0.27 90 1018.0
20191122011905 49 16 0.0 0.0 0.02 0.34 0.27 90 1018.0
20191122011404 49 16 0.0 3.0 0.03 0.34 0.27 89 1017.9
20191122010905 49 15 0.0 3.0 0.05 0.34 0.27 89 1017.9
20191122010405 49 16 0.0 3.0 0.08 0.36 0.27 89 1017.8
20191122005904 49 15 0.0 3.0 0.11 0.36 0.27 89 1017.8
20191122005404 49 15 0.0 6.0 0.12 0.36 0.27 89 1017.8
20191122004904 49 15 1.0 9.0 0.12 0.38 0.27 88 1017.7
20191122004405 49 15 2.0 10.0 0.13 0.38 0.27 88 1017.7
20191122003905 49 18 5.0 10.0 0.13 0.39 0.27 88 1017.6
20191122003404 49 7 4.0 10.0 0.13 0.46 0.27 88 1017.6
20191122002904 49 23 3.0 12.0 0.14 0.58 0.27 88 1017.6
20191122002404 49 7 4.0 12.0 0.14 0.59 0.27 88 1017.6
20191122001904 49 7 3.0 10.0 0.12 0.58 0.25 87 1017.5
20191122001404 49 15 1.0 12.0 0.12 0.57 0.24 87 1017.4
20191122000904 49 341 4.0 12.0 0.11 0.55 0.22 86 1017.5
20191122000404 49 340 6.0 12.0 0.08 0.52 0.19 86 1017.3
20191121235905 50 346 5.0 12.0 0.06 0.49 0.16 86 1017.5
20191121235405 50 5 3.0 12.0 0.05 0.48 0.15 85 1017.5
20191121234905 50 344 5.0 15.0 0.06 0.48 0.15 84 1017.3
20191121234405 51 352 6.0 15.0 0.06 0.47 0.14 84 1017.2
20191121233904 52 343 5.0 12.0 0.06 0.47 0.14 83 1017.1
20191121233404 53 320 6.0 12.0 0.06 0.47 0.14 84 1016.8
20191121232904 53 140 0.0 1.0 0.05 0.46 0.13 83 1016.5
20191121232404 53 140 0.0 3.0 0.05 0.46 0.13 82 1016.2
20191121231904 54 141 0.0 3.0 0.05 0.46 0.13 82 1015.8
20191121231405 54 150 0.0 2.0 0.04 0.45 0.12 81 1015.9
20191121230904 54 156 0.0 2.0 0.03 0.44 0.11 81 1016.0
20191121230404 55 140 0.0 2.0 0.03 0.49 0.11 80 1015.7
20191121225904 55 139 0.0 3.0 0.02 0.55 0.10 78 1015.6
20191121225404 56 138 0.0 3.0 0.02 0.55 0.10 77 1015.6
20191121224905 57 138 0.0 3.0 0.01 0.54 0.09 75 1015.4
20191121224404 57 139 0.0 5.0 0.00 0.53 0.08 75 1015.4
20191121223904 57 139 0.0 5.0 0.00 0.53 0.08 74 1015.1
20191121223405 57 124 1.0 5.0 0.00 0.53 0.08 73 1015.0
20191121222904 57 135 0.0 5.0 0.00 0.53 0.08 74 1015.0
20191121222404 57 136 0.0 5.0 0.00 0.53 0.08 73 1015.0
20191121221904 57 137 1.0 6.0 0.00 0.53 0.08 73 1015.0
20191121221404 57 129 2.0 6.0 0.00 0.53 0.08 74 1014.9
20191121220904 58 143 1.0 3.0 0.00 0.53 0.08 74 1014.9
20191121220405 58 143 0.0 3.0 0.00 0.53 0.08 73 1014.8
20191121215904 58 165 0.0 9.0 0.00 0.54 0.08 73 1014.7
20191121215404 58 173 0.0 9.0 0.00 0.54 0.08 73 1014.5
20191121214905 58 140 1.0 6.0 0.00 0.54 0.08 72 1014.4
20191121214404 58 141 2.0 6.0 0.00 0.54 0.08 72 1014.4
20191121213905 59 130 1.0 6.0 0.00 0.54 0.08 72 1014.4
20191121213404 59 131 3.0 7.0 0.00 0.54 0.08 73 1014.4
20191121212905 59 125 3.0 7.0 0.00 0.54 0.08 73 1014.3
20191121212404 59 111 3.0 6.0 0.00 0.54 0.08 73 1014.4
20191121211905 58 148 1.0 6.0 0.00 0.54 0.08 74 1014.4
20191121211405 58 122 0.0 7.0 0.00 0.58 0.08 74 1014.3
20191121210904 58 124 3.0 7.0 0.00 0.60 0.08 75 1014.3
20191121210404 58 110 1.0 8.0 0.00 0.72 0.08 76 1014.3
20191121205904 58 138 1.0 8.0 0.00 0.79 0.08 76 1014.3
20191121205405 58 128 2.0 5.0 0.00 0.80 0.08 78 1014.3
20191121204905 58 164 2.0 6.0 0.00 0.81 0.08 79 1014.4
20191121204404 57 123 2.0 7.0 0.00 0.81 0.08 78 1014.3
20191121203905 57 129 2.0 7.0 0.00 0.81 0.08 79 1014.2
20191121203405 57 107 2.0 9.0 0.00 0.81 0.08 79 1014.1
20191121202904 58 91 3.0 9.0 0.00 0.81 0.08 80 1014.1
20191121202404 57 78 2.0 6.0 0.00 0.81 0.08 80 1014.1
20191121201904 57 112 2.0 6.0 0.00 0.81 0.08 81 1014.2
20191121201404 57 128 0.0 5.0 0.00 0.81 0.08 82 1014.1
20191121200904 57 120 2.0 6.0 0.00 0.81 0.08 83 1014.2
20191121200404 57 102 1.0 6.0 0.00 0.82 0.08 83 1014.2
20191121195905 57 144 1.0 6.0 0.00 0.82 0.08 84 1014.2
20191121195404 57 119 1.0 5.0 0.00 0.84 0.08 85 1014.2
20191121194904 56 91 2.0 5.0 0.00 0.84 0.08 85 1014.5
20191121194404 56 96 3.0 5.0 0.00 0.86 0.08 85 1014.5
20191121193904 56 111 2.0 3.0 0.00 0.91 0.08 87 1014.5
20191121193404 55 102 0.0 2.0 0.00 0.93 0.08 87 1014.6
20191121192904 54 101 0.0 2.0 0.00 0.94 0.08 86 1014.7
20191121192404 54 102 0.0 0.0 0.00 0.94 0.08 87 1014.7
20191121191904 54 101 0.0 0.0 0.00 0.95 0.08 86 1014.8
20191121191404 54 102 0.0 3.0 0.00 0.97 0.08 87 1014.9
20191121190904 54 101 0.0 3.0 0.00 0.99 0.08 87 1014.9
20191121190405 54 101 0.0 3.0 0.00 1.00 0.08 87 1014.9
20191121185904 54 102 1.0 3.0 0.01 1.00 0.08 88 1014.9
20191121185404 54 105 0.0 3.0 0.02 1.00 0.08 88 1014.9
20191121184905 54 105 0.0 3.0 0.02 1.00 0.08 88 1014.9
20191121184404 54 105 2.0 3.0 0.02 1.00 0.08 88 1014.9
20191121183904 54 121 1.0 3.0 0.02 1.00 0.08 88 1014.9
20191121183405 54 135 1.0 3.0 0.02 1.00 0.08 89 1014.9
20191121182904 54 162 0.0 3.0 0.02 1.00 0.08 89 1015.0
20191121182405 54 162 1.0 3.0 0.02 1.00 0.08 89 1014.9
20191121181904 54 164 1.0 3.0 0.02 1.00 0.08 89 1014.9
20191121181404 54 165 0.0 3.0 0.02 1.00 0.08 89 1015.0
20191121180904 54 164 1.0 3.0 0.02 1.00 0.08 89 1015.0
20191121180404 54 163 0.0 0.0 0.02 1.00 0.08 88 1015.0
20191121175904 55 171 0.0 0.0 0.02 0.99 0.07 89 1015.0
20191121175404 55 186 0.0 0.0 0.02 0.98 0.06 89 1015.0
20191121174904 55 186 0.0 0.0 0.02 0.98 0.06 89 1014.9
20191121174405 55 187 0.0 0.0 0.02 0.98 0.06 89 1014.9
20191121173904 55 186 0.0 0.0 0.02 0.98 0.06 90 1014.9
20191121173404 55 186 0.0 0.0 0.02 0.98 0.06 90 1014.8
20191121172904 55 186 0.0 0.0 0.02 0.98 0.06 90 1014.8
20191121172404 55 187 0.0 0.0 0.02 0.98 0.06 90 1014.8
20191121171904 55 186 0.0 0.0 0.02 0.98 0.06 90 1014.8
20191121171404 54 186 0.0 0.0 0.02 0.98 0.06 90 1014.7
20191121170904 55 187 0.0 0.0 0.02 0.98 0.06 90 1014.7
20191121170404 55 186 0.0 3.0 0.02 0.98 0.06 90 1014.6
20191121165904 55 187 1.0 3.0 0.01 0.97 0.05 90 1014.7
20191121165404 55 185 0.0 3.0 0.00 0.96 0.04 90 1014.6
20191121164904 55 184 1.0 3.0 0.00 0.96 0.04 90 1014.4
20191121164404 56 115 0.0 3.0 0.00 0.96 0.04 91 1014.2
20191121163904 55 115 0.0 3.0 0.00 0.96 0.04 91 1014.0
20191121163404 55 106 1.0 3.0 0.00 0.96 0.04 91 1013.9
20191121162904 54 104 1.0 3.0 0.00 0.98 0.04 91 1014.0
20191121162404 54 83 0.0 3.0 0.00 0.98 0.04 91 1013.9
20191121161904 54 83 2.0 5.0 0.00 1.04 0.04 91 1013.9
20191121161404 54 88 2.0 5.0 0.00 1.08 0.04 92 1013.7
20191121160904 53 88 1.0 5.0 0.00 1.13 0.04 92 1013.7
20191121160404 53 322 0.0 1.0 0.00 1.15 0.04 92 1013.6
20191121155904 53 319 0.0 3.0 0.00 1.17 0.04 92 1013.7
20191121155404 52 11 2.0 3.0 0.00 1.18 0.04 92 1013.7
20191121154905 52 11 0.0 3.0 0.00 1.18 0.04 92 1013.6
20191121154404 52 11 1.0 3.0 0.00 1.18 0.04 92 1013.6
20191121153904 52 11 0.0 3.0 0.00 1.18 0.04 92 1013.6
20191121153404 52 11 0.0 0.0 0.00 1.18 0.04 92 1013.6
20191121152904 52 10 0.0 0.0 0.00 1.20 0.04 92 1013.5
20191121152404 51 11 0.0 0.0 0.00 1.26 0.04 92 1013.6
20191121151904 52 10 0.0 0.0 0.00 1.30 0.04 92 1013.5
20191121151405 52 11 0.0 0.0 0.00 1.33 0.04 92 1013.4
20191121150904 52 11 0.0 0.0 0.00 1.35 0.04 92 1013.4
20191121150404 51 10 0.0 0.0 0.00 1.37 0.04 92 1013.5
20191121145904 51 11 0.0 0.0 0.00 1.38 0.04 92 1013.3
20191121145404 51 11 0.0 0.0 0.00 1.39 0.04 92 1013.1
20191121144904 51 11 0.0 0.0 0.00 1.40 0.04 92 1013.1
20191121144404 51 11 0.0 0.0 0.00 1.40 0.04 92 1013.0
20191121143904 51 10 0.0 0.0 0.01 1.40 0.04 92 1012.9
20191121143404 51 10 0.0 0.0 0.01 1.40 0.04 92 1013.0
20191121142904 51 10 0.0 0.0 0.01 1.40 0.04 92 1012.9
20191121142404 51 11 0.0 0.0 0.01 1.40 0.04 92 1012.9
20191121141904 51 10 0.0 0.0 0.01 1.40 0.04 92 1013.0
20191121141404 51 10 0.0 2.0 0.02 1.40 0.04 92 1012.8
20191121140904 51 11 0.0 3.0 0.02 1.41 0.04 92 1012.8
20191121140404 51 9 0.0 5.0 0.02 1.42 0.04 93 1012.6
20191121135905 51 10 2.0 6.0 0.02 1.44 0.04 92 1012.1
20191121135404 52 10 2.0 6.0 0.02 1.46 0.04 92 1011.9
20191121134905 52 0 2.0 5.0 0.02 1.47 0.04 92 1011.9
20191121134404 52 6 3.0 5.0 0.02 1.49 0.04 93 1011.8
20191121133904 52 79 1.0 3.0 0.01 1.48 0.03 93 1011.8
20191121133405 52 79 2.0 7.0 0.01 1.48 0.03 93 1012.1
20191121132904 52 79 3.0 7.0 0.01 1.50 0.03 93 1012.1
20191121132404 52 98 2.0 5.0 0.01 1.50 0.03 93 1012.2
20191121131905 52 71 2.0 5.0 0.01 1.50 0.03 93 1012.3
20191121131405 52 307 0.0 0.0 0.00 1.49 0.02 93 1012.4
20191121130904 52 307 0.0 0.0 0.00 1.50 0.02 93 1012.5
20191121130404 52 306 0.0 0.0 0.00 1.50 0.02 93 1012.5
20191121125904 52 306 0.0 0.0 0.00 1.51 0.02 93 1012.5
20191121125404 52 306 0.0 0.0 0.00 1.52 0.02 93 1012.5
20191121124904 52 306 0.0 0.0 0.00 1.52 0.02 93 1012.5
20191121124404 52 307 0.0 0.0 0.00 1.52 0.02 93 1012.2
20191121123904 52 309 0.0 0.0 0.00 1.52 0.02 93 1012.1
20191121123405 52 309 0.0 3.0 0.00 1.52 0.02 93 1012.0
20191121122904 51 311 0.0 7.0 0.00 1.52 0.02 93 1011.9
20191121122404 51 310 3.0 7.0 0.00 1.52 0.02 93 1011.9
20191121121904 51 261 2.0 5.0 0.00 1.52 0.02 93 1011.8
20191121121404 51 49 0.0 0.0 0.00 1.52 0.02 93 1011.6
20191121120904 51 49 0.0 0.0 0.00 1.52 0.02 93 1011.5
20191121120404 51 49 0.0 0.0 0.00 1.52 0.02 93 1011.4
20191121115904 51 49 0.0 0.0 0.00 1.52 0.02 93 1011.2
20191121115404 51 49 0.0 0.0 0.00 1.52 0.02 93 1011.2
20191121114904 51 49 0.0 0.0 0.00 1.52 0.02 93 1011.2
20191121114404 51 49 0.0 0.0 0.00 1.52 0.02 93 1011.0
20191121113904 51 49 0.0 0.0 0.00 1.52 0.02 93 1011.1
20191121113405 51 49 0.0 0.0 0.00 1.52 0.02 93 1011.2
20191121112905 51 49 0.0 0.0 0.00 1.52 0.02 93 1011.1
20191121112404 51 49 0.0 0.0 0.00 1.52 0.02 93 1011.1
20191121111905 51 49 0.0 3.0 0.01 1.52 0.02 93 1011.2
20191121111403 51 49 0.0 3.0 0.02 1.52 0.02 93 1011.3
20191121110904 51 48 0.0 0.0 0.02 1.52 0.02 93 1011.4
20191121110404 51 49 0.0 3.0 0.02 1.52 0.02 93 1011.4
20191121105904 51 49 0.0 3.0 0.02 1.52 0.02 93 1011.5
20191121105404 51 49 0.0 0.0 0.02 1.52 0.02 93 1011.4
20191121104904 52 49 0.0 0.0 0.02 1.52 0.02 93 1011.5
20191121104404 52 48 0.0 0.0 0.02 1.52 0.02 93 1011.5
20191121103904 52 49 0.0 0.0 0.02 1.52 0.02 93 1011.5
20191121103404 52 49 0.0 0.0 0.02 1.52 0.02 93 1011.6
20191121102904 52 48 0.0 0.0 0.02 1.52 0.02 93 1011.7
20191121102404 52 49 0.0 1.0 0.02 1.52 0.02 93 1011.7
20191121101904 52 49 0.0 3.0 0.01 1.51 0.01 94 1011.6
20191121101405 52 48 1.0 3.0 0.00 1.50 0.00 94 1011.5
20191121100904 52 53 2.0 3.0 0.00 1.50 0.00 94 1011.5
20191121100404 52 54 0.0 3.0 0.00 1.50 0.00 94 1011.6
20191121095905 52 54 2.0 3.0 0.00 1.50 0.00 94 1011.6
20191121095404 52 54 0.0 3.0 0.00 1.50 0.00 94 1011.7
20191121094904 52 54 0.0 3.0 0.00 1.50 0.00 94 1011.7
20191121094404 52 55 1.0 3.0 0.00 1.50 0.00 94 1011.6
20191121093904 51 55 0.0 0.0 0.00 1.50 0.00 94 1011.7
20191121093404 51 55 0.0 0.0 0.00 1.50 0.00 94 1011.9
20191121092904 51 54 0.0 0.0 0.00 1.50 0.00 93 1011.8
20191121092404 51 55 0.0 0.0 0.00 1.50 0.00 93 1012.0
20191121091904 51 55 0.0 0.0 0.00 1.50 0.00 93 1012.0
20191121091404 51 55 0.0 0.0 0.00 1.50 0.00 93 1012.0
20191121090904 51 54 0.0 0.0 0.00 1.50 0.00 93 1011.8
20191121090404 51 55 0.0 0.0 0.00 1.50 0.00 93 1011.7
20191121085903 51 54 0.0 0.0 0.00 1.50 0.00 93 1011.6
20191121085404 51 55 0.0 0.0 0.00 1.50 0.00 94 1011.7
20191121084904 51 55 0.0 0.0 0.00 1.50 0.00 94 1011.6
20191121084404 51 55 0.0 0.0 0.00 1.50 0.00 93 1011.6
20191121083904 51 55 0.0 0.0 0.00 1.50 0.00 93 1011.6
20191121083405 50 55 0.0 0.0 0.00 1.50 0.00 93 1011.6
20191121082904 51 56 0.0 0.0 0.00 1.50 0.00 93 1011.5
20191121082403 51 55 0.0 0.0 0.00 1.50 0.00 93 1011.3
20191121081904 51 55 0.0 0.0 0.00 1.50 0.00 94 1011.3
20191121081404 51 55 0.0 0.0 0.00 1.50 0.00 94 1011.3
20191121080903 51 55 0.0 0.0 0.00 1.50 0.00 94 1011.2
20191121080404 51 55 0.0 0.0 0.00 1.50 0.00 94 1011.2
20191121075904 51 55 0.0 0.0 0.00 1.50 0.00 94 1011.4
20191121075404 51 55 0.0 0.0 0.00 1.50 0.00 93 1011.5
20191121074904 51 55 0.0 0.0 0.00 1.50 0.00 93 1011.5
20191121074404 51 55 0.0 0.0 0.00 1.50 0.00 93 1011.4
20191121073904 51 55 0.0 0.0 0.00 1.50 0.00 93 1011.4
20191121073404 51 55 0.0 0.0 0.00 1.50 0.00 93 1011.4
20191121072904 51 56 0.0 0.0 0.00 1.50 0.00 93 1011.4
20191121072404 52 55 0.0 0.0 0.00 1.50 0.00 93 1011.3
20191121071904 52 55 0.0 1.0 0.00 1.50 0.00 94 1011.1
20191121071404 52 55 0.0 3.0 0.00 1.50 0.00 93 1011.1
20191121070904 52 54 1.0 3.0 0.00 1.50 0.00 94 1011.1
20191121070404 52 55 0.0 3.0 0.00 1.50 0.00 93 1011.1
20191121065904 52 52 2.0 3.0 0.00 1.50 1.50 93 1011.1
20191121065404 52 48 0.0 3.0 0.00 1.50 1.50 94 1010.9
20191121064904 52 48 0.0 3.0 0.00 1.50 1.50 94 1011.0
20191121064404 52 48 0.0 0.0 0.00 1.50 1.50 94 1011.1
20191121063904 52 48 0.0 0.0 0.01 1.50 1.50 94 1011.1
20191121063404 52 48 0.0 0.0 0.01 1.50 1.50 94 1011.1
20191121062904 52 47 0.0 3.0 0.01 1.50 1.50 93 1011.1
20191121062404 52 47 1.0 3.0 0.01 1.50 1.50 93 1011.0
20191121061904 52 47 1.0 3.0 0.01 1.50 1.50 93 1011.0
20191121061404 52 47 2.0 3.0 0.01 1.50 1.50 94 1010.9
20191121060904 52 38 0.0 5.0 0.01 1.50 1.50 94 1010.9
20191121060404 52 38 0.0 5.0 0.01 1.50 1.50 94 1010.9
20191121055904 52 37 3.0 5.0 0.02 1.50 1.50 94 1010.9
20191121055404 52 318 0.0 0.0 0.03 1.50 1.50 94 1011.0
20191121054904 52 321 0.0 0.0 0.03 1.50 1.50 93 1010.9
20191121054405 52 267 0.0 0.0 0.04 1.50 1.50 93 1011.0
20191121053904 52 267 0.0 0.0 0.03 1.49 1.49 93 1011.1
20191121053404 52 267 0.0 0.0 0.04 1.50 1.49 93 1011.0
20191121052904 52 267 0.0 0.0 0.04 1.50 1.49 93 1010.7
20191121052404 52 267 0.0 0.0 0.05 1.50 1.49 94 1010.8
20191121051904 52 267 0.0 0.0 0.05 1.50 1.49 94 1010.7
20191121051404 52 267 0.0 0.0 0.06 1.50 1.49 93 1010.6
20191121050904 53 267 0.0 0.0 0.06 1.50 1.49 93 1010.5
20191121050404 53 267 0.0 0.0 0.06 1.50 1.49 94 1010.6
20191121045904 53 267 0.0 0.0 0.05 1.49 1.48 93 1010.7
20191121045404 52 267 0.0 0.0 0.04 1.48 1.47 93 1010.7
20191121044904 52 267 0.0 3.0 0.04 1.48 1.47 93 1010.5
20191121044404 53 267 0.0 6.0 0.03 1.47 1.46 93 1010.2
20191121043904 53 281 1.0 6.0 0.03 1.47 1.46 94 1010.4
20191121043406 53 335 0.0 3.0 0.02 1.46 1.45 93 1010.3
20191121042904 53 333 0.0 3.0 0.02 1.46 1.45 93 1010.1
20191121042404 53 332 1.0 5.0 0.01 1.45 1.44 94 1010.0
20191121041905 53 10 1.0 5.0 0.01 1.45 1.44 94 1009.5
20191121041404 53 9 0.0 3.0 0.00 1.44 1.43 94 1009.4
20191121040904 53 10 0.0 3.0 0.00 1.44 1.43 93 1009.2
20191121040404 52 327 2.0 3.0 0.00 1.44 1.43 93 1009.3
20191121035904 52 252 0.0 0.0 0.00 1.44 1.43 93 1009.4
20191121035404 52 252 0.0 0.0 0.00 1.44 1.43 93 1009.5
20191121034904 52 252 0.0 0.0 0.00 1.44 1.43 93 1009.5
20191121034404 52 251 0.0 0.0 0.00 1.44 1.43 93 1009.5
20191121033904 52 251 0.0 0.0 0.00 1.44 1.43 93 1009.6
20191121033404 52 251 0.0 0.0 0.00 1.44 1.43 93 1009.5
20191121032904 53 251 0.0 0.0 0.00 1.44 1.43 93 1009.3
20191121032404 53 250 0.0 0.0 0.00 1.44 1.43 93 1009.3
20191121031904 53 251 0.0 0.0 0.00 1.44 1.43 93 1009.2
20191121031404 53 250 0.0 0.0 0.00 1.44 1.43 93 1009.1
20191121030904 53 251 0.0 2.0 0.00 1.44 1.43 93 1009.1
20191121030404 53 251 0.0 2.0 0.00 1.44 1.43 93 1009.1
20191121025904 53 250 0.0 0.0 0.00 1.44 1.43 93 1009.2
20191121025405 53 251 0.0 0.0 0.00 1.44 1.43 93 1009.3
20191121024904 53 252 0.0 1.0 0.00 1.44 1.43 93 1009.3
20191121024404 53 250 0.0 3.0 0.00 1.44 1.43 93 1009.2
20191121023904 53 250 1.0 3.0 0.00 1.45 1.43 93 1009.2
20191121023404 53 250 2.0 3.0 0.00 1.45 1.43 93 1009.2
20191121022904 53 250 1.0 3.0 0.00 1.45 1.43 93 1009.1
20191121022404 53 249 0.0 6.0 0.00 1.45 1.43 93 1008.9
20191121021904 53 250 1.0 6.0 0.00 1.45 1.43 93 1009.0
20191121021404 53 262 1.0 6.0 0.00 1.45 1.43 93 1008.8
20191121020904 53 243 1.0 6.0 0.00 1.45 1.43 93 1008.6
20191121020404 54 238 2.0 9.0 0.00 1.46 1.43 93 1008.6
20191121015904 54 244 3.0 9.0 0.02 1.46 1.43 93 1008.4
20191121015404 54 249 2.0 10.0 0.02 1.46 1.43 93 1008.3